Time;durP1;ratioP1;P1;durP2;ratioP2;P2;SDS_P1;SDS_P2;PMS_P1;PMS_P2;Temp;Humidity;BMP_temperature;BMP_pressure;BME280_temperature;BME280_humidity;BME280_pressure;Samples;Min_cycle;Max_cycle;Signal;HPM_P1;HPM_P2
2021/06/27 00:00:40;;;;;;;;;;;;;;;17.16;93.52;96027.25;1048843;28;20304;-45
2021/06/27 00:01:10;;;;;;;;;;;;;;;17.18;93.15;96027.00;1051668;28;19916;-46
2021/06/27 00:01:41;;;;;;;;;;;;;;;17.16;92.63;96029.13;1053298;28;20361;-46
2021/06/27 00:02:11;;;;;;;;;;;;;;;17.15;93.36;96027.50;1053610;28;19912;-46
2021/06/27 00:02:41;;;;;;;;;;;;;;;17.09;93.28;96023.94;1053687;28;19916;-47
2021/06/27 00:03:12;;;;;;;;;;;;;;;17.06;93.42;96029.72;1053310;28;19966;-47
2021/06/27 00:03:43;;;;;;;;;;;;;;;17.12;93.34;96026.09;1061504;28;20472;-45
2021/06/27 00:04:14;;;;;;;;;;;;;;;17.11;93.31;96029.00;1061317;28;19907;-49
2021/06/27 00:04:44;;;;;;;;;;;;;;;17.01;93.55;96033.09;1061467;28;19911;-49
2021/06/27 00:05:15;;;;;;;;;;;;;;;16.98;94.18;96027.47;1061325;28;20362;-47
2021/06/27 00:05:46;;;;;;;;;;;;;;;17.03;94.20;96032.88;1053146;28;19916;-46
2021/06/27 00:06:16;;;;;;;;;;;;;;;17.02;93.62;96033.91;1053198;28;19919;-46
2021/06/27 00:06:46;;;;;;;;;;;;;;;17.06;94.05;96035.03;1053321;28;20249;-46
2021/06/27 00:07:16;;;;;;;;;;;;;;;17.03;94.31;96036.31;1053243;28;19900;-48
2021/06/27 00:07:47;;;;;;;;;;;;;;;17.03;94.52;96035.53;1053115;28;19911;-46
2021/06/27 00:08:18;;;;;;;;;;;;;;;16.91;94.22;96027.59;1053287;28;19979;-47
2021/06/27 00:08:48;;;;;;;;;;;;;;;16.72;95.43;96034.09;1053912;28;20300;-47
2021/06/27 00:09:19;;;;;;;;;;;;;;;16.72;96.05;96034.09;1054135;28;20269;-47
2021/06/27 00:09:49;;;;;;;;;;;;;;;16.70;96.09;96040.47;1054014;28;19918;-47
2021/06/27 00:10:21;;;;;;;;;;;;;;;16.67;96.20;96038.28;1054144;28;19901;-48
2021/06/27 00:10:55;;;;;;;;;;;;;;;16.66;96.49;96039.31;1054169;28;19910;-47
2021/06/27 00:11:26;;;;;;;;;;;;;;;16.83;95.75;96038.59;1054043;28;19946;-49
2021/06/27 00:11:56;;;;;;;;;;;;;;;16.81;95.41;96032.69;1054126;28;19908;-47
2021/06/27 00:12:26;;;;;;;;;;;;;;;16.95;95.51;96035.91;1054031;28;19996;-49
2021/06/27 00:12:57;;;;;;;;;;;;;;;16.94;94.61;96036.94;1053988;28;19905;-46
2021/06/27 00:13:27;;;;;;;;;;;;;;;16.83;94.44;96030.59;1054231;28;19904;-47
2021/06/27 00:13:57;;;;;;;;;;;;;;;16.88;94.64;96030.72;1053926;28;19952;-49
2021/06/27 00:14:28;;;;;;;;;;;;;;;17.00;94.12;96030.69;1053957;28;19904;-46
2021/06/27 00:14:58;;;;;;;;;;;;;;;17.04;93.71;96029.97;1053696;28;19905;-47
2021/06/27 00:15:38;;;;;;;;;;;;;;;17.06;93.25;96024.41;1053956;28;19935;-46
2021/06/27 00:16:09;;;;;;;;;;;;;;;17.13;92.65;96024.28;1053616;28;19940;-47
2021/06/27 00:16:39;;;;;;;;;;;;;;;17.07;92.06;96025.22;1055151;28;19904;-49
2021/06/27 00:17:09;;;;;;;;;;;;;;;17.11;92.29;96031.66;1056511;28;19949;-47
2021/06/27 00:17:40;;;;;;;;;;;;;;;17.10;92.21;96027.41;1054119;28;19904;-50
2021/06/27 00:18:12;;;;;;;;;;;;;;;17.17;91.75;96030.72;1053903;28;19911;-49
2021/06/27 00:18:42;;;;;;;;;;;;;;;17.13;91.82;96029.59;1048104;27;20305;-47
2021/06/27 00:19:13;;;;;;;;;;;;;;;17.10;92.09;96036.19;1055310;28;19904;-48
2021/06/27 00:19:44;;;;;;;;;;;;;;;17.00;92.20;96038.66;1049764;28;20410;-49
2021/06/27 00:20:20;;;;;;;;;;;;;;;16.97;93.17;96031.16;1049433;28;19904;-49
2021/06/27 00:20:51;;;;;;;;;;;;;;;17.06;93.24;96035.03;1049170;28;20301;-46
2021/06/27 00:21:21;;;;;;;;;;;;;;;17.13;92.52;96029.59;1049303;28;19905;-47
2021/06/27 00:21:51;;;;;;;;;;;;;;;17.11;92.54;96031.66;1049761;28;19905;-45
2021/06/27 00:22:22;;;;;;;;;;;;;;;17.01;91.77;96027.00;1049475;28;20003;-47
2021/06/27 00:22:52;;;;;;;;;;;;;;;17.02;91.88;96026.75;1049970;28;20035;-47
2021/06/27 00:23:23;;;;;;;;;;;;;;;17.01;91.99;96032.31;1049917;28;19901;-46
2021/06/27 00:23:53;;;;;;;;;;;;;;;17.03;91.96;96032.88;1049489;28;19912;-49
2021/06/27 00:24:23;;;;;;;;;;;;;;;17.12;92.07;96027.97;1049156;28;19916;-47
2021/06/27 00:24:54;;;;;;;;;;;;;;;17.11;91.63;96031.66;1049458;28;19909;-47
2021/06/27 00:25:25;;;;;;;;;;;;;;;17.05;91.61;96030.78;1049613;28;19901;-46
2021/06/27 00:25:56;;;;;;;;;;;;;;;16.95;91.99;96027.94;1049779;28;20399;-47
2021/06/27 00:26:26;;;;;;;;;;;;;;;17.00;91.88;96030.69;1049648;28;19919;-50
2021/06/27 00:26:56;;;;;;;;;;;;;;;17.00;92.17;96026.16;1049839;28;19915;-47
2021/06/27 00:27:27;;;;;;;;;;;;;;;17.03;92.40;96024.88;1049884;28;19911;-47
2021/06/27 00:27:57;;;;;;;;;;;;;;;17.05;92.04;96028.94;1049895;28;19916;-48
2021/06/27 00:28:28;;;;;;;;;;;;;;;17.02;92.05;96026.75;1049759;28;20284;-46
2021/06/27 00:28:58;;;;;;;;;;;;;;;17.08;92.56;96026.81;1049809;28;20345;-47
2021/06/27 00:29:28;;;;;;;;;;;;;;;16.99;92.35;96024.56;1057822;28;19907;-47
2021/06/27 00:29:58;;;;;;;;;;;;;;;17.05;92.49;96028.13;1057965;28;19908;-46
2021/06/27 00:30:29;;;;;;;;;;;;;;;16.98;92.98;96032.78;1053452;28;19904;-47
2021/06/27 00:31:00;;;;;;;;;;;;;;;16.95;92.79;96027.94;1049403;28;19947;-46
2021/06/27 00:31:30;;;;;;;;;;;;;;;16.84;93.55;96030.38;1045587;28;19975;-46
2021/06/27 00:32:01;;;;;;;;;;;;;;;16.88;94.20;96036.03;1049662;28;19931;-45
2021/06/27 00:32:31;;;;;;;;;;;;;;;16.95;93.77;96034.06;1053691;28;19908;-46
2021/06/27 00:33:02;;;;;;;;;;;;;;;16.93;93.10;96032.66;1053670;28;20245;-45
2021/06/27 00:33:32;;;;;;;;;;;;;;;16.86;93.93;96030.97;1053759;28;19986;-46
2021/06/27 00:34:02;;;;;;;;;;;;;;;16.84;93.92;96034.88;1049636;28;19905;-46
2021/06/27 00:34:33;;;;;;;;;;;;;;;16.87;94.07;96029.13;1049456;28;20306;-46
2021/06/27 00:35:04;;;;;;;;;;;;;;;16.92;93.78;96031.06;1053712;28;19916;-46
2021/06/27 00:35:34;;;;;;;;;;;;;;;16.91;93.11;96024.94;1053794;28;19908;-46
2021/06/27 00:36:05;;;;;;;;;;;;;;;16.86;92.81;96028.31;1049524;28;19915;-46
2021/06/27 00:36:35;;;;;;;;;;;;;;;16.88;93.13;96028.06;1049580;28;19909;-46
2021/06/27 00:37:06;;;;;;;;;;;;;;;16.86;93.14;96027.47;1049526;28;20003;-47
2021/06/27 00:37:36;;;;;;;;;;;;;;;16.78;93.29;96022.53;1049536;28;19905;-46
2021/06/27 00:38:07;;;;;;;;;;;;;;;16.80;93.23;96023.09;1050000;28;19904;-46
2021/06/27 00:38:37;;;;;;;;;;;;;;;16.78;93.03;96025.19;1049831;28;20010;-46
2021/06/27 00:39:07;;;;;;;;;;;;;;;16.72;93.27;96024.28;1049631;28;20269;-46
2021/06/27 00:39:38;;;;;;;;;;;;;;;16.69;93.92;96027.41;1049855;28;19908;-46
2021/06/27 00:40:12;;;;;;;;;;;;;;;16.69;94.17;96028.22;1049988;28;19909;-45
2021/06/27 00:40:42;;;;;;;;;;;;;;;16.75;93.83;96023.00;1049514;28;20385;-46
2021/06/27 00:41:12;;;;;;;;;;;;;;;16.76;93.56;96019.28;1049427;28;19904;-47
2021/06/27 00:41:43;;;;;;;;;;;;;;;16.81;93.42;96025.53;1052145;28;19941;-45
2021/06/27 00:42:13;;;;;;;;;;;;;;;16.78;93.32;96018.03;1054260;28;19919;-50
2021/06/27 00:42:44;;;;;;;;;;;;;;;16.76;93.38;96024.63;1053993;28;19968;-49
2021/06/27 00:43:14;;;;;;;;;;;;;;;16.74;93.65;96018.72;1053723;28;19908;-47
2021/06/27 00:43:44;;;;;;;;;;;;;;;16.72;93.93;96023.47;1053662;28;19951;-47
2021/06/27 00:44:20;;;;;;;;;;;;;;;16.72;93.82;96024.28;1053274;28;19919;-47
2021/06/27 00:44:51;;;;;;;;;;;;;;;16.73;94.15;96017.91;1054422;28;20288;-48
2021/06/27 00:45:22;;;;;;;;;;;;;;;16.76;94.48;96021.94;1053454;28;19980;-47
2021/06/27 00:45:53;;;;;;;;;;;;;;;16.69;93.75;96022.91;1053725;28;20292;-47
2021/06/27 00:46:23;;;;;;;;;;;;;;;16.67;93.93;96016.19;1053758;28;19971;-47
2021/06/27 00:46:53;;;;;;;;;;;;;;;16.65;94.37;96023.59;1053762;28;19912;-50
2021/06/27 00:47:30;;;;;;;;;;;;;;;16.63;94.37;96031.03;1053173;28;19991;-48
2021/06/27 00:48:00;;;;;;;;;;;;;;;16.62;94.55;96024.06;1053505;28;19908;-48
2021/06/27 00:48:30;;;;;;;;;;;;;;;16.64;94.55;96020.16;1054509;28;19912;-47
2021/06/27 00:49:01;;;;;;;;;;;;;;;16.67;94.30;96025.00;1053215;28;20438;-47
2021/06/27 00:49:31;;;;;;;;;;;;;;;16.70;93.95;96019.22;1053547;28;19904;-47
2021/06/27 00:50:03;;;;;;;;;;;;;;;16.70;93.63;96023.69;1053154;28;19963;-47
2021/06/27 00:50:37;;;;;;;;;;;;;;;16.73;93.33;96023.22;1057840;28;19930;-49
2021/06/27 00:51:07;;;;;;;;;;;;;;;16.72;93.67;96021.63;1057640;28;19965;-47
2021/06/27 00:51:38;;;;;;;;;;;;;;;16.72;93.43;96024.28;1057616;28;19961;-50
2021/06/27 00:52:08;;;;;;;;;;;;;;;16.67;93.58;96027.66;1058025;28;19907;-48
2021/06/27 00:52:38;;;;;;;;;;;;;;;16.64;93.64;96028.13;1057429;28;19912;-49
2021/06/27 00:53:09;;;;;;;;;;;;;;;16.56;94.03;96028.47;1053581;28;20273;-48
2021/06/27 00:53:39;;;;;;;;;;;;;;;16.53;94.41;96028.94;1052627;28;19919;-49
2021/06/27 00:54:09;;;;;;;;;;;;;;;16.41;95.16;96022.84;1055136;28;19904;-47
2021/06/27 00:54:40;;;;;;;;;;;;;;;16.40;95.75;96027.38;1054584;28;19965;-47
2021/06/27 00:55:10;;;;;;;;;;;;;;;16.36;95.99;96033.41;1053946;28;19919;-47
2021/06/27 00:55:41;;;;;;;;;;;;;;;16.44;96.08;96027.69;1053531;28;19912;-52
2021/06/27 00:56:11;;;;;;;;;;;;;;;16.45;96.14;96039.97;1053371;28;19908;-47
2021/06/27 00:56:44;;;;;;;;;;;;;;;16.43;95.90;96031.41;1050342;28;20003;-47
2021/06/27 00:57:14;;;;;;;;;;;;;;;16.47;95.90;96032.53;1056428;28;20391;-47
2021/06/27 00:57:45;;;;;;;;;;;;;;;16.40;96.04;96026.53;1057402;28;19951;-47
2021/06/27 00:58:15;;;;;;;;;;;;;;;16.34;96.43;96031.78;1053821;28;19916;-46
2021/06/27 00:58:46;;;;;;;;;;;;;;;16.45;96.50;96030.13;1053795;28;19995;-46
2021/06/27 00:59:16;;;;;;;;;;;;;;;16.46;95.78;96030.94;1057773;28;19908;-48
2021/06/27 00:59:46;;;;;;;;;;;;;;;16.34;96.40;96029.09;1057931;28;19907;-47
2021/06/27 01:00:17;;;;;;;;;;;;;;;16.32;96.84;96033.84;1057706;28;19908;-48
2021/06/27 01:00:48;;;;;;;;;;;;;;;16.37;97.17;96029.66;1053752;28;19912;-49
2021/06/27 01:01:18;;;;;;;;;;;;;;;16.45;96.83;96024.81;1048452;28;19912;-46
2021/06/27 01:01:49;;;;;;;;;;;;;;;16.51;96.34;96031.03;1046427;28;19916;-48
2021/06/27 01:02:19;;;;;;;;;;;;;;;16.50;96.23;96030.25;1052288;28;20024;-47
2021/06/27 01:02:49;;;;;;;;;;;;;;;16.45;96.42;96031.97;1057476;28;19918;-46
2021/06/27 01:03:20;;;;;;;;;;;;;;;16.44;96.32;96020.56;1050769;28;19908;-46
2021/06/27 01:03:50;;;;;;;;;;;;;;;16.39;97.08;96031.06;1051178;28;19959;-46
2021/06/27 01:04:20;;;;;;;;;;;;;;;16.38;97.09;96024.13;1051548;28;20277;-48
2021/06/27 01:04:51;;;;;;;;;;;;;;;16.39;96.84;96028.41;1051462;28;19994;-47
2021/06/27 01:05:22;;;;;;;;;;;;;;;16.40;96.83;96018.56;1053528;28;19926;-47
2021/06/27 01:05:52;;;;;;;;;;;;;;;16.39;96.88;96024.94;1053414;28;19908;-47
2021/06/27 01:06:22;;;;;;;;;;;;;;;16.33;96.90;96024.81;1050414;28;19928;-46
2021/06/27 01:06:53;;;;;;;;;;;;;;;16.37;97.69;96025.19;1053463;28;20001;-47
2021/06/27 01:07:23;;;;;;;;;;;;;;;16.32;97.27;96025.88;1053871;28;19926;-46
2021/06/27 01:07:54;;;;;;;;;;;;;;;16.39;97.41;96024.94;1062021;27;19910;-46
2021/06/27 01:08:24;;;;;;;;;;;;;;;16.43;97.30;96024.25;1061931;27;19920;-47
2021/06/27 01:08:55;;;;;;;;;;;;;;;16.34;97.54;96021.13;1062035;27;19903;-46
2021/06/27 01:09:25;;;;;;;;;;;;;;;16.45;97.23;96031.97;1062174;27;19937;-46
2021/06/27 01:09:55;;;;;;;;;;;;;;;16.55;96.64;96026.88;1053965;28;19904;-47
2021/06/27 01:10:26;;;;;;;;;;;;;;;16.64;95.90;96030.78;1053788;28;19904;-47
2021/06/27 01:10:56;;;;;;;;;;;;;;;16.57;95.94;96027.44;1054061;28;20361;-47
2021/06/27 01:11:26;;;;;;;;;;;;;;;16.53;96.17;96026.28;1053862;28;19904;-47
2021/06/27 01:12:00;;;;;;;;;;;;;;;16.61;96.33;96023.28;1053810;28;19998;-47
2021/06/27 01:12:30;;;;;;;;;;;;;;;16.51;95.94;96031.84;1053736;28;19939;-47
2021/06/27 01:13:00;;;;;;;;;;;;;;;16.39;96.30;96024.94;1053854;28;19910;-47
2021/06/27 01:13:33;;;;;;;;;;;;;;;16.39;96.75;96028.41;1053945;28;20371;-47
2021/06/27 01:14:03;;;;;;;;;;;;;;;16.39;96.32;96020.44;1053917;28;19904;-48
2021/06/27 01:14:34;;;;;;;;;;;;;;;16.46;96.31;96026.44;1053615;28;19909;-47
2021/06/27 01:15:04;;;;;;;;;;;;;;;16.51;96.56;96025.72;1054146;28;19900;-46
2021/06/27 01:15:35;;;;;;;;;;;;;;;16.53;95.98;96023.63;1053805;28;19946;-47
2021/06/27 01:16:05;;;;;;;;;;;;;;;16.52;95.76;96033.47;1053835;28;20007;-47
2021/06/27 01:16:40;;;;;;;;;;;;;;;16.46;96.19;96030.94;1053729;28;19904;-47
2021/06/27 01:17:11;;;;;;;;;;;;;;;16.46;96.15;96030.94;1053806;28;19904;-47
2021/06/27 01:17:41;;;;;;;;;;;;;;;16.47;96.12;96024.56;1053838;28;19900;-46
2021/06/27 01:18:12;;;;;;;;;;;;;;;16.59;95.94;96029.88;1053293;28;19904;-47
2021/06/27 01:18:42;;;;;;;;;;;;;;;16.56;94.85;96025.81;1049962;28;19932;-47
2021/06/27 01:19:12;;;;;;;;;;;;;;;16.51;94.93;96021.22;1053531;28;19911;-47
2021/06/27 01:19:43;;;;;;;;;;;;;;;16.50;94.46;96024.09;1053270;28;19904;-47
2021/06/27 01:20:17;;;;;;;;;;;;;;;16.59;94.43;96027.22;1054368;28;19940;-47
2021/06/27 01:20:48;;;;;;;;;;;;;;;16.54;93.91;96021.81;1054151;28;19906;-46
2021/06/27 01:21:18;;;;;;;;;;;;;;;16.51;94.77;96021.22;1053885;28;19912;-47
2021/06/27 01:21:51;;;;;;;;;;;;;;;16.43;95.14;96021.59;1053813;28;19957;-46
2021/06/27 01:22:23;;;;;;;;;;;;;;;16.56;95.76;96025.81;1053910;28;20271;-47
2021/06/27 01:22:54;;;;;;;;;;;;;;;16.57;95.39;96026.66;1053956;28;19904;-47
2021/06/27 01:23:24;;;;;;;;;;;;;;;16.49;95.31;96025.16;1053787;28;19950;-47
2021/06/27 01:23:54;;;;;;;;;;;;;;;16.47;95.94;96021.91;1053535;28;19912;-47
2021/06/27 01:24:25;;;;;;;;;;;;;;;16.51;96.51;96025.72;1053358;28;19971;-47
2021/06/27 01:24:55;;;;;;;;;;;;;;;16.43;96.33;96023.44;1053614;28;19974;-46
2021/06/27 01:25:26;;;;;;;;;;;;;;;16.45;96.37;96029.31;1053651;28;19908;-46
2021/06/27 01:25:57;;;;;;;;;;;;;;;16.46;95.87;96026.44;1053717;28;20280;-46
2021/06/27 01:26:27;;;;;;;;;;;;;;;16.41;96.35;96020.19;1053804;28;19919;-48
2021/06/27 01:26:57;;;;;;;;;;;;;;;16.38;96.51;96025.97;1053809;28;19912;-46
2021/06/27 01:27:28;;;;;;;;;;;;;;;16.33;97.06;96024.81;1054198;28;19912;-46
2021/06/27 01:27:58;;;;;;;;;;;;;;;16.31;97.30;96018.94;1053731;28;19912;-47
2021/06/27 01:28:28;;;;;;;;;;;;;;;16.30;97.34;96024.50;1053936;28;19908;-47
2021/06/27 01:28:59;;;;;;;;;;;;;;;16.42;96.91;96027.13;1053795;28;19919;-47
2021/06/27 01:29:29;;;;;;;;;;;;;;;16.38;96.49;96024.13;1053698;28;20015;-47
2021/06/27 01:30:00;;;;;;;;;;;;;;;16.50;96.86;96026.75;1053795;28;20280;-47
2021/06/27 01:30:30;;;;;;;;;;;;;;;16.47;96.21;96017.44;1053706;28;20431;-47
2021/06/27 01:31:00;;;;;;;;;;;;;;;16.54;95.75;96021.81;1053796;28;19912;-47
2021/06/27 01:31:31;;;;;;;;;;;;;;;16.51;96.42;96028.38;1053689;28;20395;-47
2021/06/27 01:32:01;;;;;;;;;;;;;;;16.62;95.64;96029.41;1053865;28;19919;-47
2021/06/27 01:32:32;;;;;;;;;;;;;;;16.65;94.87;96029.72;1062175;27;19912;-47
2021/06/27 01:33:04;;;;;;;;;;;;;;;16.54;95.30;96027.13;1061986;27;20356;-46
2021/06/27 01:33:34;;;;;;;;;;;;;;;16.42;95.32;96013.84;1061739;27;20354;-46
2021/06/27 01:34:05;;;;;;;;;;;;;;;16.36;96.16;96025.41;1057405;28;19912;-47
2021/06/27 01:34:36;;;;;;;;;;;;;;;16.45;96.37;96024.81;1057505;28;19973;-46
2021/06/27 01:35:10;;;;;;;;;;;;;;;16.42;95.94;96021.81;1057400;27;19911;-47
2021/06/27 01:35:40;;;;;;;;;;;;;;;16.36;96.50;96026.22;1058360;27;19941;-46
2021/06/27 01:36:10;;;;;;;;;;;;;;;16.37;96.29;96022.53;1060725;27;20008;-48
2021/06/27 01:36:41;;;;;;;;;;;;;;;16.38;96.71;96020.66;1053726;28;19908;-46
2021/06/27 01:37:11;;;;;;;;;;;;;;;16.40;96.73;96018.56;1053232;28;19912;-46
2021/06/27 01:37:42;;;;;;;;;;;;;;;16.49;95.63;96025.97;1053271;28;19924;-46
2021/06/27 01:38:13;;;;;;;;;;;;;;;16.40;94.97;96021.22;1057642;28;19908;-47
2021/06/27 01:38:43;;;;;;;;;;;;;;;16.38;95.09;96020.66;1057806;27;19908;-47
2021/06/27 01:39:13;;;;;;;;;;;;;;;16.40;95.21;96023.88;1062045;27;19966;-47
2021/06/27 01:39:44;;;;;;;;;;;;;;;16.41;94.87;96020.19;1061489;27;19916;-47
2021/06/27 01:40:15;;;;;;;;;;;;;;;16.41;94.58;96022.84;1053746;28;19948;-46
2021/06/27 01:40:45;;;;;;;;;;;;;;;16.45;94.33;96024.00;1062001;27;19929;-46
2021/06/27 01:41:16;;;;;;;;;;;;;;;16.40;94.29;96023.88;1057867;28;19920;-47
2021/06/27 01:41:47;;;;;;;;;;;;;;;16.46;94.28;96022.97;1057724;28;19972;-48
2021/06/27 01:42:18;;;;;;;;;;;;;;;16.50;94.09;96021.44;1057358;28;20374;-47
2021/06/27 01:42:48;;;;;;;;;;;;;;;16.49;93.69;96020.66;1057639;28;19912;-46
2021/06/27 01:43:19;;;;;;;;;;;;;;;16.44;93.82;96019.72;1061856;27;19908;-47
2021/06/27 01:43:50;;;;;;;;;;;;;;;16.41;94.01;96023.66;1061922;27;20049;-46
2021/06/27 01:44:20;;;;;;;;;;;;;;;16.31;94.32;96023.47;1061429;27;19903;-47
2021/06/27 01:44:50;;;;;;;;;;;;;;;16.22;94.90;96030.97;1053894;28;19923;-47
2021/06/27 01:45:21;;;;;;;;;;;;;;;16.24;95.26;96028.09;1053351;28;20284;-50
2021/06/27 01:45:53;;;;;;;;;;;;;;;16.26;95.70;96031.31;1053350;28;19956;-48
2021/06/27 01:46:23;;;;;;;;;;;;;;;16.36;95.69;96025.41;1053248;28;19912;-45
2021/06/27 01:46:56;;;;;;;;;;;;;;;16.24;95.69;96026.22;1053429;28;19951;-48
2021/06/27 01:47:27;;;;;;;;;;;;;;;16.24;95.53;96025.44;1053690;28;19904;-48
2021/06/27 01:47:58;;;;;;;;;;;;;;;16.29;95.67;96021.03;1053632;28;19904;-51
2021/06/27 01:48:29;;;;;;;;;;;;;;;16.21;95.31;96021.38;1053767;28;19905;-48
2021/06/27 01:48:59;;;;;;;;;;;;;;;16.20;96.51;96022.44;1054121;28;20254;-47
2021/06/27 01:49:29;;;;;;;;;;;;;;;16.23;96.48;96021.97;1053855;28;19911;-48
2021/06/27 01:50:00;;;;;;;;;;;;;;;16.23;95.66;96027.28;1050766;28;19916;-51
2021/06/27 01:50:30;;;;;;;;;;;;;;;16.21;95.78;96025.91;1052235;28;20349;-48
2021/06/27 01:51:01;;;;;;;;;;;;;;;16.11;96.35;96023.81;1052172;28;20341;-50
2021/06/27 01:51:31;;;;;;;;;;;;;;;16.04;96.71;96023.94;1059057;27;19903;-50
2021/06/27 01:52:02;;;;;;;;;;;;;;;15.97;96.71;96021.41;1059133;27;19915;-48
2021/06/27 01:52:32;;;;;;;;;;;;;;;16.06;97.05;96019.19;1060224;27;19904;-48
2021/06/27 01:53:03;;;;;;;;;;;;;;;16.10;96.93;96024.88;1056481;28;19963;-46
2021/06/27 01:53:34;;;;;;;;;;;;;;;16.11;97.01;96018.50;1049096;28;19916;-48
2021/06/27 01:54:04;;;;;;;;;;;;;;;16.11;96.60;96027.28;1046136;28;20000;-49
2021/06/27 01:54:38;;;;;;;;;;;;;;;16.10;97.05;96022.22;1049342;28;19904;-49
2021/06/27 01:55:08;;;;;;;;;;;;;;;16.11;96.65;96023.81;1053284;28;20250;-50
2021/06/27 01:55:39;;;;;;;;;;;;;;;16.15;96.03;96024.97;1053509;28;19979;-49
2021/06/27 01:56:10;;;;;;;;;;;;;;;16.07;96.35;96026.13;1050572;28;20486;-49
2021/06/27 01:56:40;;;;;;;;;;;;;;;16.15;96.60;96030.28;1050982;28;19904;-47
2021/06/27 01:57:10;;;;;;;;;;;;;;;16.10;96.52;96027.53;1051941;28;20338;-48
2021/06/27 01:57:41;;;;;;;;;;;;;;;16.15;96.51;96024.97;1051960;28;19911;-47
2021/06/27 01:58:11;;;;;;;;;;;;;;;16.10;96.11;96023.00;1050541;28;19905;-48
2021/06/27 01:58:42;;;;;;;;;;;;;;;15.97;96.05;96023.25;1050722;28;19913;-48
2021/06/27 01:59:13;;;;;;;;;;;;;;;16.04;96.45;96028.47;1051984;28;19911;-49
2021/06/27 01:59:47;;;;;;;;;;;;;;;16.12;96.70;96025.44;1052215;28;19947;-51
2021/06/27 02:00:17;;;;;;;;;;;;;;;16.06;96.39;96023.72;1049208;28;19916;-48
2021/06/27 02:00:48;;;;;;;;;;;;;;;16.12;96.93;96028.09;1049404;28;20007;-47
2021/06/27 02:01:22;;;;;;;;;;;;;;;16.16;96.40;96023.94;1049886;28;19905;-51
2021/06/27 02:01:53;;;;;;;;;;;;;;;16.10;96.38;96020.38;1049474;28;19954;-48
2021/06/27 02:02:23;;;;;;;;;;;;;;;16.13;96.20;96025.22;1050885;28;19962;-48
2021/06/27 02:02:53;;;;;;;;;;;;;;;16.22;96.12;96027.53;1053539;28;19930;-48
2021/06/27 02:03:24;;;;;;;;;;;;;;;16.08;96.86;96027.75;1053602;28;20340;-49
2021/06/27 02:03:54;;;;;;;;;;;;;;;16.02;97.04;96027.88;1053700;28;19911;-47
2021/06/27 02:04:25;;;;;;;;;;;;;;;16.10;96.94;96024.88;1053728;28;19995;-48
2021/06/27 02:04:56;;;;;;;;;;;;;;;16.26;95.44;96026.81;1053604;28;19905;-47
2021/06/27 02:05:26;;;;;;;;;;;;;;;16.18;95.51;96021.84;1053581;28;19904;-48
2021/06/27 02:05:56;;;;;;;;;;;;;;;16.19;95.63;96028.00;1053682;28;19904;-47
2021/06/27 02:06:27;;;;;;;;;;;;;;;16.17;95.62;96026.38;1053507;28;19911;-48
2021/06/27 02:06:58;;;;;;;;;;;;;;;16.19;95.80;96026.13;1053485;28;19908;-49
2021/06/27 02:07:28;;;;;;;;;;;;;;;16.11;95.38;96026.47;1061916;27;19908;-48
2021/06/27 02:07:58;;;;;;;;;;;;;;;16.07;96.01;96026.13;1061877;27;19907;-51
2021/06/27 02:08:30;;;;;;;;;;;;;;;16.02;96.14;96030.53;1057343;28;20363;-50
2021/06/27 02:09:01;;;;;;;;;;;;;;;16.01;96.60;96026.28;1057312;28;19912;-49
2021/06/27 02:09:31;;;;;;;;;;;;;;;16.02;96.67;96027.88;1053267;28;19918;-47
2021/06/27 02:10:02;;;;;;;;;;;;;;;16.04;96.78;96029.25;1049244;28;19928;-47
2021/06/27 02:10:33;;;;;;;;;;;;;;;16.04;96.69;96028.47;1053360;28;19916;-48
2021/06/27 02:11:04;;;;;;;;;;;;;;;15.96;96.95;96034.94;1053240;28;19958;-48
2021/06/27 02:11:34;;;;;;;;;;;;;;;15.99;97.16;96031.81;1053214;28;19979;-49
2021/06/27 02:12:04;;;;;;;;;;;;;;;16.02;96.81;96027.88;1053421;28;19939;-48
2021/06/27 02:12:35;;;;;;;;;;;;;;;16.02;96.75;96028.69;1053590;28;20291;-52
2021/06/27 02:13:05;;;;;;;;;;;;;;;16.02;97.17;96031.34;1053728;28;19908;-49
2021/06/27 02:13:36;;;;;;;;;;;;;;;16.02;97.47;96031.34;1053140;28;20384;-49
2021/06/27 02:14:06;;;;;;;;;;;;;;;16.13;96.53;96029.72;1052989;28;20356;-49
2021/06/27 02:14:37;;;;;;;;;;;;;;;16.13;96.15;96032.38;1053001;28;19915;-49
2021/06/27 02:15:07;;;;;;;;;;;;;;;16.20;95.77;96038.38;1053205;28;19913;-48
2021/06/27 02:15:38;;;;;;;;;;;;;;;16.14;95.53;96034.00;1053400;28;19915;-48
2021/06/27 02:16:08;;;;;;;;;;;;;;;16.13;95.81;96032.38;1053395;28;19961;-51
2021/06/27 02:16:39;;;;;;;;;;;;;;;16.13;96.06;96035.03;1053487;28;19908;-50
2021/06/27 02:17:09;;;;;;;;;;;;;;;16.11;95.92;96035.25;1053245;28;19908;-47
2021/06/27 02:17:47;;;;;;;;;;;;;;;16.07;96.06;96033.31;1053501;28;20389;-50
2021/06/27 02:18:22;;;;;;;;;;;;;;;16.06;95.92;96040.44;1051509;28;20284;-52
2021/06/27 02:18:52;;;;;;;;;;;;;;;16.05;96.28;96044.16;1046102;28;19919;-49
2021/06/27 02:19:23;;;;;;;;;;;;;;;16.04;96.57;96039.09;1048863;28;19916;-49
2021/06/27 02:19:54;;;;;;;;;;;;;;;16.07;95.87;96043.94;1049017;28;19924;-49
2021/06/27 02:20:25;;;;;;;;;;;;;;;16.03;95.80;96037.47;1049050;28;19962;-48
2021/06/27 02:20:56;;;;;;;;;;;;;;;16.05;95.76;96044.16;1053460;28;20003;-50
2021/06/27 02:21:28;;;;;;;;;;;;;;;16.05;95.48;96046.81;1052979;28;19919;-50
2021/06/27 02:21:58;;;;;;;;;;;;;;;16.02;95.62;96041.13;1053375;28;19908;-49
2021/06/27 02:22:28;;;;;;;;;;;;;;;16.01;95.83;96045.66;1053070;28;20364;-52
2021/06/27 02:22:59;;;;;;;;;;;;;;;15.97;95.87;96034.69;1053291;28;19912;-50
2021/06/27 02:23:30;;;;;;;;;;;;;;;16.02;95.90;96041.13;1053135;28;19923;-49
2021/06/27 02:24:00;;;;;;;;;;;;;;;15.98;95.73;96040.81;1055271;28;19962;-51
2021/06/27 02:24:32;;;;;;;;;;;;;;;15.91;95.92;96038.28;1056006;28;19931;-53
2021/06/27 02:25:02;;;;;;;;;;;;;;;15.95;96.51;96041.28;1051782;28;20395;-51
2021/06/27 02:25:33;;;;;;;;;;;;;;;15.88;96.19;96045.88;1050219;28;19912;-53
2021/06/27 02:26:03;;;;;;;;;;;;;;;15.79;96.50;96048.88;1050381;28;20058;-48
2021/06/27 02:26:33;;;;;;;;;;;;;;;15.76;97.33;96048.50;1051898;28;19907;-49
2021/06/27 02:27:04;;;;;;;;;;;;;;;15.77;97.68;96045.63;1049376;28;20004;-49
2021/06/27 02:27:34;;;;;;;;;;;;;;;15.67;97.54;96044.56;1049086;28;19920;-47
2021/06/27 02:28:05;;;;;;;;;;;;;;;15.70;98.64;96046.75;1049095;28;19994;-51
2021/06/27 02:28:35;;;;;;;;;;;;;;;15.76;98.05;96048.50;1044909;28;20389;-52
2021/06/27 02:29:05;;;;;;;;;;;;;;;15.76;97.76;96051.16;1048971;28;20468;-49
2021/06/27 02:29:35;;;;;;;;;;;;;;;15.68;97.96;96046.97;1040059;28;20365;-50
2021/06/27 02:30:08;;;;;;;;;;;;;;;15.74;98.28;96046.06;1049913;28;19905;-53
2021/06/27 02:30:38;;;;;;;;;;;;;;;15.80;98.49;96044.38;1053400;27;19916;-52
2021/06/27 02:31:09;;;;;;;;;;;;;;;15.81;97.90;96046.81;1055896;28;20128;-50
2021/06/27 02:31:39;;;;;;;;;;;;;;;15.85;97.95;96041.03;1060611;27;19960;-51
2021/06/27 02:32:10;;;;;;;;;;;;;;;15.94;97.42;96040.47;1056712;28;20335;-52
2021/06/27 02:32:40;;;;;;;;;;;;;;;15.89;96.90;96047.50;1048262;28;19939;-48
2021/06/27 02:33:10;;;;;;;;;;;;;;;15.83;97.33;96040.47;1044338;28;19917;-48
2021/06/27 02:33:41;;;;;;;;;;;;;;;15.76;97.07;96046.66;1040355;28;19920;-54
2021/06/27 02:34:11;;;;;;;;;;;;;;;15.87;97.54;96044.28;1043949;28;19916;-49
2021/06/27 02:34:42;;;;;;;;;;;;;;;15.82;97.32;96044.97;1044090;28;19975;-50
2021/06/27 02:35:12;;;;;;;;;;;;;;;15.81;97.61;96040.69;1048262;28;19942;-50
2021/06/27 02:35:42;;;;;;;;;;;;;;;15.71;98.28;96043.88;1052295;28;20365;-50
2021/06/27 02:36:13;;;;;;;;;;;;;;;15.68;98.51;96046.97;1047958;28;19995;-50
2021/06/27 02:36:43;;;;;;;;;;;;;;;15.75;98.49;96046.88;1051049;28;20379;-53
2021/06/27 02:37:13;;;;;;;;;;;;;;;15.88;98.24;96038.75;1051188;28;19938;-51
2021/06/27 02:37:44;;;;;;;;;;;;;;;16.00;96.92;96033.41;1051506;28;20400;-48
2021/06/27 02:38:14;;;;;;;;;;;;;;;15.87;97.23;96039.78;1050496;28;19953;-50
2021/06/27 02:38:44;;;;;;;;;;;;;;;15.84;97.30;96039.44;1050736;28;19951;-48
2021/06/27 02:39:15;;;;;;;;;;;;;;;15.79;97.93;96040.94;1051737;28;19912;-49
2021/06/27 02:39:45;;;;;;;;;;;;;;;15.84;98.15;96037.56;1051831;28;19912;-51
2021/06/27 02:40:15;;;;;;;;;;;;;;;15.88;97.97;96046.72;1050926;28;19909;-49
2021/06/27 02:40:46;;;;;;;;;;;;;;;15.92;97.69;96037.22;1050377;28;19961;-51